NKS464 KMCO-KIAH
Flight info
| Callsign | NKS464 |
|---|---|
| Flight time | N/A |
| Altitude | 34000 |
| Route | OSPRY1 REMIS ROZZI Y280 LEV NNCEE2 |
| Aircraft | A21N/M-SDE2E3FGHIJ1RWXY/LB1 |
Departure
| Time | 2026-04-25 22:49 |
|---|---|
| Airport | Orlando International Airport (KMCO) |
Arrival
| Time | N/A |
|---|---|
| Airport | George Bush Intercontinental Airport (KIAH) |
| Time | Latitude | Longitude | Altitude | Speed | Heading |
|---|---|---|---|---|---|
| 2026-04-25 22:37 | 28.43440 | -81.31551 | 100 ft | 0 kts | 158° |
| 2026-04-25 22:39 | 28.43462 | -81.31563 | 101 ft | 4 kts | 140° |
| 2026-04-25 22:39 | 28.43476 | -81.31586 | 101 ft | 4 kts | 101° |
| 2026-04-25 22:39 | 28.43476 | -81.31605 | 100 ft | 0 kts | 75° |
| 2026-04-25 22:44 | 28.43485 | -81.31599 | 101 ft | 4 kts | 7° |
| 2026-04-25 22:44 | 28.43514 | -81.31614 | 100 ft | 5 kts | 336° |
| 2026-04-25 22:44 | 28.43553 | -81.31633 | 103 ft | 7 kts | 336° |
| 2026-04-25 22:44 | 28.43610 | -81.31642 | 103 ft | 10 kts | 5° |
| 2026-04-25 22:45 | 28.43681 | -81.31621 | 104 ft | 12 kts | 14° |
| 2026-04-25 22:45 | 28.43765 | -81.31641 | 109 ft | 14 kts | 330° |
| 2026-04-25 22:45 | 28.43858 | -81.31686 | 110 ft | 15 kts | 354° |
| 2026-04-25 22:45 | 28.43923 | -81.31772 | 107 ft | 16 kts | 276° |
| 2026-04-25 22:46 | 28.43939 | -81.31903 | 104 ft | 17 kts | 295° |
| 2026-04-25 22:46 | 28.44014 | -81.32002 | 104 ft | 18 kts | 345° |
| 2026-04-25 22:46 | 28.44142 | -81.32007 | 104 ft | 19 kts | 0° |
| 2026-04-25 22:46 | 28.44277 | -81.32008 | 104 ft | 20 kts | 359° |
| 2026-04-25 22:47 | 28.44417 | -81.32011 | 103 ft | 21 kts | 359° |
| 2026-04-25 22:47 | 28.44563 | -81.32013 | 103 ft | 21 kts | 359° |
| 2026-04-25 22:47 | 28.44715 | -81.32014 | 103 ft | 22 kts | 360° |
| 2026-04-25 22:47 | 28.44820 | -81.32059 | 103 ft | 18 kts | 294° |
| 2026-04-25 22:48 | 28.44825 | -81.32166 | 102 ft | 14 kts | 268° |
| 2026-04-25 22:48 | 28.44755 | -81.32231 | 103 ft | 15 kts | 181° |
| 2026-04-25 22:48 | 28.44611 | -81.32230 | 104 ft | 36 kts | 179° |
| 2026-04-25 22:48 | 28.44105 | -81.32225 | 107 ft | 108 kts | 179° |
| 2026-04-25 22:49 | 28.43162 | -81.32215 | 102 ft | 164 kts | 179° |
| 2026-04-25 22:49 | 28.41922 | -81.32191 | 397 ft | 181 kts | 179° |
| 2026-04-25 22:49 | 28.40648 | -81.32172 | 1002 ft | 183 kts | 179° |
| 2026-04-25 22:49 | 28.39357 | -81.32256 | 1560 ft | 187 kts | 186° |
| 2026-04-25 22:50 | 28.38103 | -81.32750 | 2053 ft | 200 kts | 208° |
| 2026-04-25 22:50 | 28.36995 | -81.33768 | 2592 ft | 214 kts | 219° |
| 2026-04-25 22:50 | 28.35819 | -81.34911 | 3152 ft | 232 kts | 218° |
| 2026-04-25 22:50 | 28.34502 | -81.36140 | 3540 ft | 258 kts | 220° |
| 2026-04-25 22:51 | 28.33240 | -81.37701 | 4031 ft | 272 kts | 234° |
| 2026-04-25 22:51 | 28.32330 | -81.39567 | 5010 ft | 269 kts | 248° |
| 2026-04-25 22:51 | 28.31831 | -81.41599 | 5970 ft | 266 kts | 262° |
| 2026-04-25 22:51 | 28.31769 | -81.43661 | 6829 ft | 266 kts | 274° |
| 2026-04-25 22:52 | 28.32054 | -81.45784 | 7401 ft | 278 kts | 281° |
| 2026-04-25 22:52 | 28.32459 | -81.47951 | 8167 ft | 280 kts | 280° |
| 2026-04-25 22:52 | 28.32695 | -81.50149 | 9040 ft | 279 kts | 274° |
| 2026-04-25 22:52 | 28.32713 | -81.51604 | 9628 ft | 278 kts | 268° |
| 2026-04-25 22:53 | 28.32411 | -81.54582 | 10340 ft | 293 kts | 263° |
| 2026-04-25 22:53 | 28.32146 | -81.56954 | 10620 ft | 312 kts | 264° |
| 2026-04-25 22:53 | 28.31898 | -81.59475 | 10866 ft | 331 kts | 265° |
| 2026-04-25 22:53 | 28.31660 | -81.62114 | 11101 ft | 349 kts | 265° |
| 2026-04-25 22:54 | 28.31420 | -81.64962 | 11348 ft | 366 kts | 265° |
| 2026-04-25 22:54 | 28.31185 | -81.67843 | 11807 ft | 374 kts | 266° |
| 2026-04-25 22:54 | 28.30945 | -81.70815 | 12465 ft | 378 kts | 266° |
| 2026-04-25 22:54 | 28.30706 | -81.73796 | 13144 ft | 381 kts | 266° |
| 2026-04-25 22:55 | 28.30464 | -81.76806 | 13826 ft | 383 kts | 266° |
| 2026-04-25 22:55 | 28.30226 | -81.79796 | 14392 ft | 386 kts | 266° |
| 2026-04-25 22:55 | 28.29988 | -81.82846 | 14969 ft | 389 kts | 266° |
| 2026-04-25 22:55 | 28.29743 | -81.85940 | 15567 ft | 393 kts | 266° |
| 2026-04-25 22:56 | 28.29467 | -81.89045 | 16180 ft | 397 kts | 264° |
| 2026-04-25 22:56 | 28.28933 | -81.92149 | 16796 ft | 402 kts | 260° |
| 2026-04-25 22:56 | 28.28330 | -81.95262 | 17373 ft | 405 kts | 259° |
| 2026-04-25 22:56 | 28.27731 | -81.98350 | 17924 ft | 408 kts | 260° |
| 2026-04-25 22:57 | 28.27126 | -82.01509 | 18420 ft | 411 kts | 260° |
| 2026-04-25 22:57 | 28.26516 | -82.04696 | 18885 ft | 414 kts | 260° |
| 2026-04-25 22:57 | 28.25905 | -82.07908 | 19354 ft | 416 kts | 260° |
| 2026-04-25 22:57 | 28.25298 | -82.11127 | 19830 ft | 419 kts | 260° |
| 2026-04-25 22:58 | 28.24689 | -82.14369 | 20296 ft | 421 kts | 260° |
| 2026-04-25 22:58 | 28.24070 | -82.17636 | 20762 ft | 424 kts | 260° |
| 2026-04-25 22:58 | 28.23453 | -82.20872 | 21212 ft | 426 kts | 260° |
| 2026-04-25 22:58 | 28.22818 | -82.24172 | 21660 ft | 429 kts | 260° |
| 2026-04-25 22:59 | 28.22180 | -82.27490 | 22116 ft | 431 kts | 260° |
| 2026-04-25 22:59 | 28.21536 | -82.30827 | 22566 ft | 434 kts | 260° |
| 2026-04-25 22:59 | 28.20895 | -82.34148 | 23010 ft | 436 kts | 260° |
| 2026-04-25 22:59 | 28.20242 | -82.37533 | 23434 ft | 439 kts | 259° |
| 2026-04-25 23:00 | 28.19808 | -82.39769 | 23680 ft | 440 kts | 259° |
| 2026-04-25 23:00 | 28.19096 | -82.43452 | 24076 ft | 443 kts | 260° |
| 2026-04-25 23:00 | 28.18433 | -82.46873 | 24455 ft | 444 kts | 260° |
| 2026-04-25 23:00 | 28.17762 | -82.50316 | 24828 ft | 446 kts | 260° |
| 2026-04-25 23:01 | 28.17094 | -82.53712 | 25202 ft | 447 kts | 260° |
| 2026-04-25 23:01 | 28.16421 | -82.57160 | 25553 ft | 449 kts | 260° |
| 2026-04-25 23:01 | 28.15749 | -82.60622 | 25905 ft | 450 kts | 260° |
| 2026-04-25 23:01 | 28.15075 | -82.64091 | 26323 ft | 450 kts | 260° |
| 2026-04-25 23:02 | 28.14402 | -82.67547 | 26794 ft | 448 kts | 260° |
| 2026-04-25 23:02 | 28.13727 | -82.70987 | 27256 ft | 446 kts | 260° |
| 2026-04-25 23:02 | 28.13054 | -82.74407 | 27717 ft | 444 kts | 260° |
| 2026-04-25 23:02 | 28.12380 | -82.77827 | 28167 ft | 442 kts | 260° |
| 2026-04-25 23:03 | 28.11709 | -82.81187 | 28626 ft | 440 kts | 260° |
| 2026-04-25 23:03 | 28.11034 | -82.84558 | 29084 ft | 438 kts | 260° |
| 2026-04-25 23:03 | 28.10366 | -82.87927 | 29540 ft | 436 kts | 261° |
| 2026-04-25 23:03 | 28.09711 | -82.91293 | 29948 ft | 434 kts | 261° |
| 2026-04-25 23:04 | 28.09087 | -82.94629 | 30286 ft | 433 kts | 261° |
| 2026-04-25 23:04 | 28.08683 | -82.96835 | 30503 ft | 432 kts | 261° |
| 2026-04-25 23:04 | 28.07860 | -83.01293 | 30934 ft | 431 kts | 261° |
| 2026-04-25 23:04 | 28.07247 | -83.04577 | 31232 ft | 430 kts | 261° |
| 2026-04-25 23:05 | 28.06626 | -83.07888 | 31550 ft | 428 kts | 261° |
| 2026-04-25 23:05 | 28.06001 | -83.11183 | 31844 ft | 427 kts | 261° |
| 2026-04-25 23:05 | 28.05379 | -83.14478 | 32124 ft | 427 kts | 261° |
| 2026-04-25 23:05 | 28.04762 | -83.17719 | 32396 ft | 426 kts | 261° |
| 2026-04-25 23:06 | 28.04137 | -83.21004 | 32662 ft | 425 kts | 261° |
| 2026-04-25 23:06 | 28.03518 | -83.24271 | 32918 ft | 424 kts | 261° |
| 2026-04-25 23:06 | 28.02894 | -83.27535 | 33166 ft | 424 kts | 261° |
| 2026-04-25 23:06 | 28.02271 | -83.30791 | 33422 ft | 423 kts | 261° |
| 2026-04-25 23:07 | 28.01650 | -83.34054 | 33652 ft | 422 kts | 261° |
| 2026-04-25 23:07 | 28.01020 | -83.37301 | 33876 ft | 422 kts | 261° |
| 2026-04-25 23:07 | 27.99973 | -83.43773 | 33937 ft | 418 kts | 268° |
| 2026-04-25 23:08 | 27.99583 | -83.50344 | 33920 ft | 417 kts | 269° |
| 2026-04-25 23:08 | 27.99272 | -83.55803 | 33911 ft | 418 kts | 269° |
| 2026-04-25 23:09 | 27.98876 | -83.62360 | 33911 ft | 418 kts | 269° |
| 2026-04-25 23:09 | 27.98500 | -83.68942 | 33912 ft | 417 kts | 269° |
| 2026-04-25 23:10 | 27.98120 | -83.75517 | 33913 ft | 425 kts | 269° |
| 2026-04-25 23:10 | 27.97727 | -83.82260 | 33911 ft | 432 kts | 269° |
| 2026-04-25 23:11 | 27.97320 | -83.89086 | 33910 ft | 436 kts | 269° |
| 2026-04-25 23:11 | 27.96912 | -83.95885 | 33907 ft | 436 kts | 269° |
| 2026-04-25 23:12 | 27.96497 | -84.02726 | 33905 ft | 436 kts | 269° |
| 2026-04-25 23:12 | 27.96074 | -84.09580 | 33905 ft | 436 kts | 269° |
| 2026-04-25 23:13 | 27.95640 | -84.16432 | 33906 ft | 435 kts | 269° |
| 2026-04-25 23:13 | 27.95217 | -84.23274 | 33904 ft | 435 kts | 269° |
| 2026-04-25 23:14 | 27.94780 | -84.30110 | 33906 ft | 436 kts | 269° |
| 2026-04-25 23:14 | 27.94344 | -84.36892 | 33902 ft | 436 kts | 269° |
| 2026-04-25 23:15 | 27.93904 | -84.43739 | 33902 ft | 434 kts | 269° |
| 2026-04-25 23:15 | 27.93463 | -84.50565 | 33904 ft | 434 kts | 269° |
| 2026-04-25 23:16 | 27.93024 | -84.57385 | 33901 ft | 434 kts | 269° |
| 2026-04-25 23:16 | 27.92577 | -84.64202 | 33904 ft | 434 kts | 268° |
| 2026-04-25 23:17 | 27.92107 | -84.71008 | 33899 ft | 434 kts | 269° |
| 2026-04-25 23:17 | 27.91647 | -84.77758 | 33902 ft | 434 kts | 269° |
| 2026-04-25 23:18 | 27.91211 | -84.84571 | 33904 ft | 433 kts | 269° |
| 2026-04-25 23:18 | 27.90757 | -84.91365 | 33894 ft | 432 kts | 269° |
| 2026-04-25 23:19 | 27.90298 | -84.98108 | 33904 ft | 432 kts | 269° |
| 2026-04-25 23:19 | 27.89836 | -85.04890 | 33899 ft | 431 kts | 269° |
| 2026-04-25 23:20 | 27.89366 | -85.11643 | 33895 ft | 432 kts | 269° |
| 2026-04-25 23:20 | 27.88894 | -85.18417 | 33895 ft | 433 kts | 269° |
| 2026-04-25 23:21 | 27.88636 | -85.25178 | 33893 ft | 428 kts | 277° |
| 2026-04-25 23:21 | 27.90078 | -85.31645 | 33906 ft | 424 kts | 290° |
| 2026-04-25 23:22 | 27.92062 | -85.37951 | 33892 ft | 424 kts | 290° |
| 2026-04-25 23:23 | 27.94939 | -85.47396 | 33902 ft | 424 kts | 290° |
| 2026-04-25 23:23 | 27.96846 | -85.53728 | 33902 ft | 424 kts | 290° |
| 2026-04-25 23:24 | 27.98739 | -85.60019 | 33898 ft | 425 kts | 290° |
| 2026-04-25 23:24 | 28.00643 | -85.66341 | 33900 ft | 424 kts | 290° |
| 2026-04-25 23:25 | 28.02529 | -85.72665 | 33898 ft | 424 kts | 290° |
| 2026-04-25 23:25 | 28.04432 | -85.79006 | 33897 ft | 423 kts | 290° |
| 2026-04-25 23:26 | 28.06322 | -85.85301 | 33897 ft | 424 kts | 290° |
| 2026-04-25 23:26 | 28.08210 | -85.91632 | 33901 ft | 424 kts | 290° |
| 2026-04-25 23:27 | 28.10083 | -85.97931 | 33895 ft | 423 kts | 290° |
| 2026-04-25 23:27 | 28.11970 | -86.04273 | 33893 ft | 422 kts | 290° |
| 2026-04-25 23:28 | 28.13849 | -86.10612 | 33896 ft | 423 kts | 290° |
| 2026-04-25 23:28 | 28.15716 | -86.16925 | 33900 ft | 424 kts | 290° |
| 2026-04-25 23:29 | 28.17591 | -86.23264 | 33874 ft | 425 kts | 290° |
| 2026-04-25 23:29 | 28.19460 | -86.29616 | 33892 ft | 428 kts | 290° |
| 2026-04-25 23:30 | 28.21335 | -86.35994 | 33884 ft | 426 kts | 290° |
| 2026-04-25 23:30 | 28.23188 | -86.42372 | 33891 ft | 424 kts | 290° |
| 2026-04-25 23:31 | 28.25039 | -86.48697 | 33896 ft | 423 kts | 290° |
| 2026-04-25 23:31 | 28.26902 | -86.55053 | 33893 ft | 423 kts | 290° |
| 2026-04-25 23:32 | 28.28760 | -86.61401 | 33893 ft | 423 kts | 290° |
| 2026-04-25 23:32 | 28.30614 | -86.67686 | 33896 ft | 423 kts | 290° |
| 2026-04-25 23:33 | 28.32454 | -86.74000 | 33896 ft | 422 kts | 290° |
| 2026-04-25 23:33 | 28.34309 | -86.80311 | 33895 ft | 420 kts | 290° |
| 2026-04-25 23:34 | 28.36155 | -86.86618 | 33896 ft | 420 kts | 290° |
| 2026-04-25 23:34 | 28.37979 | -86.92881 | 33899 ft | 420 kts | 290° |
| 2026-04-25 23:35 | 28.39815 | -86.99175 | 33895 ft | 419 kts | 290° |
| 2026-04-25 23:35 | 28.41647 | -87.05474 | 33893 ft | 418 kts | 290° |
| 2026-04-25 23:36 | 28.43474 | -87.11764 | 33893 ft | 419 kts | 290° |
| 2026-04-25 23:36 | 28.45294 | -87.18047 | 33895 ft | 419 kts | 290° |
| 2026-04-25 23:37 | 28.47110 | -87.24329 | 33892 ft | 418 kts | 290° |
| 2026-04-25 23:37 | 28.48913 | -87.30571 | 33894 ft | 418 kts | 290° |
| 2026-04-25 23:38 | 28.50713 | -87.36849 | 33892 ft | 417 kts | 290° |
| 2026-04-25 23:38 | 28.52514 | -87.43120 | 33891 ft | 416 kts | 290° |
| 2026-04-25 23:39 | 28.54315 | -87.49395 | 33889 ft | 416 kts | 290° |
| 2026-04-25 23:39 | 28.56104 | -87.55663 | 33891 ft | 416 kts | 290° |
| 2026-04-25 23:40 | 28.57892 | -87.61908 | 33895 ft | 416 kts | 290° |
| 2026-04-25 23:40 | 28.59665 | -87.68134 | 33894 ft | 415 kts | 290° |
| 2026-04-25 23:41 | 28.61444 | -87.74387 | 33898 ft | 415 kts | 290° |
| 2026-04-25 23:41 | 28.63229 | -87.80640 | 33894 ft | 414 kts | 290° |
| 2026-04-25 23:42 | 28.64998 | -87.86904 | 33895 ft | 414 kts | 290° |
| 2026-04-25 23:42 | 28.66762 | -87.93114 | 33893 ft | 415 kts | 289° |
| 2026-04-25 23:43 | 28.68529 | -87.99363 | 33890 ft | 414 kts | 289° |
| 2026-04-25 23:43 | 28.70296 | -88.05611 | 33891 ft | 414 kts | 289° |
| 2026-04-25 23:44 | 28.72053 | -88.11881 | 33890 ft | 414 kts | 289° |
| 2026-04-25 23:44 | 28.73789 | -88.18097 | 33890 ft | 415 kts | 289° |
| 2026-04-25 23:45 | 28.75542 | -88.24371 | 33895 ft | 415 kts | 289° |
| 2026-04-25 23:45 | 28.77292 | -88.30635 | 33889 ft | 415 kts | 289° |
| 2026-04-25 23:46 | 28.79040 | -88.36855 | 33887 ft | 415 kts | 289° |
| 2026-04-25 23:46 | 28.80776 | -88.43130 | 33886 ft | 413 kts | 289° |
| 2026-04-25 23:47 | 28.82526 | -88.49382 | 33887 ft | 413 kts | 289° |
| 2026-04-25 23:47 | 28.84254 | -88.55620 | 33891 ft | 413 kts | 289° |
| 2026-04-25 23:48 | 28.85990 | -88.61879 | 33885 ft | 413 kts | 289° |
| 2026-04-25 23:48 | 28.87698 | -88.68103 | 33886 ft | 413 kts | 289° |
| 2026-04-25 23:49 | 28.89187 | -88.74450 | 33886 ft | 414 kts | 285° |
| 2026-04-25 23:49 | 28.90558 | -88.80838 | 33886 ft | 415 kts | 285° |
| 2026-04-25 23:50 | 28.91916 | -88.87222 | 33883 ft | 413 kts | 285° |
| 2026-04-25 23:50 | 28.93274 | -88.93567 | 33885 ft | 413 kts | 285° |
| 2026-04-25 23:51 | 28.94623 | -88.99966 | 33888 ft | 414 kts | 285° |
| 2026-04-25 23:51 | 28.95961 | -89.06318 | 33884 ft | 413 kts | 285° |
| 2026-04-25 23:52 | 28.97319 | -89.12702 | 33886 ft | 413 kts | 285° |
| 2026-04-25 23:52 | 28.98664 | -89.19091 | 33886 ft | 413 kts | 285° |
| 2026-04-25 23:53 | 28.99988 | -89.25448 | 33877 ft | 413 kts | 285° |
| 2026-04-25 23:53 | 29.01322 | -89.31811 | 33880 ft | 413 kts | 285° |
| 2026-04-25 23:54 | 29.02661 | -89.38194 | 33879 ft | 413 kts | 285° |
| 2026-04-25 23:54 | 29.03986 | -89.44592 | 33879 ft | 413 kts | 285° |
| 2026-04-25 23:55 | 29.05309 | -89.50950 | 33877 ft | 413 kts | 285° |
| 2026-04-25 23:55 | 29.06408 | -89.56275 | 33878 ft | 413 kts | 285° |
| 2026-04-25 23:56 | 29.07723 | -89.62682 | 33880 ft | 413 kts | 285° |
| 2026-04-25 23:56 | 29.09037 | -89.69094 | 33875 ft | 413 kts | 285° |
| 2026-04-25 23:57 | 29.10345 | -89.75455 | 33874 ft | 413 kts | 285° |
| 2026-04-25 23:57 | 29.11659 | -89.81844 | 33873 ft | 413 kts | 285° |
| 2026-04-25 23:58 | 29.12971 | -89.88253 | 33874 ft | 412 kts | 285° |
| 2026-04-25 23:58 | 29.14289 | -89.94636 | 33875 ft | 412 kts | 285° |
| 2026-04-25 23:59 | 29.15593 | -90.00983 | 33880 ft | 412 kts | 285° |
| 2026-04-25 23:59 | 29.16898 | -90.07378 | 33880 ft | 412 kts | 285° |
| 2026-04-26 00:00 | 29.17961 | -90.13836 | 33883 ft | 413 kts | 281° |
| 2026-04-26 00:00 | 29.18795 | -90.20367 | 33886 ft | 413 kts | 281° |
| 2026-04-26 00:01 | 29.19617 | -90.26838 | 33892 ft | 413 kts | 281° |
| 2026-04-26 00:01 | 29.20441 | -90.33358 | 33892 ft | 413 kts | 281° |
| 2026-04-26 00:02 | 29.21273 | -90.39875 | 33887 ft | 413 kts | 281° |
| 2026-04-26 00:02 | 29.22083 | -90.46353 | 33886 ft | 413 kts | 280° |
| 2026-04-26 00:03 | 29.22893 | -90.52875 | 33882 ft | 413 kts | 281° |
| 2026-04-26 00:03 | 29.23575 | -90.58300 | 33890 ft | 414 kts | 280° |
| 2026-04-26 00:04 | 29.23709 | -90.59365 | 33880 ft | 414 kts | 281° |